createdAt,value
2023-04-01T00:00:19.372Z,98541.33
2023-04-01T00:01:18.871Z,98540.09
2023-04-01T00:02:19.373Z,98537.94
2023-04-01T00:03:20.519Z,98541.92
2023-04-01T00:04:19.993Z,98541.38
2023-04-01T00:05:20.195Z,98541.12
2023-04-01T00:06:20.554Z,98540.59
2023-04-01T00:07:23.486Z,98540.38
2023-04-01T00:08:21.581Z,98541.63
2023-04-01T00:09:21.695Z,98538.88
2023-04-01T00:10:22.094Z,98537.81
2023-04-01T00:11:22.429Z,98541.73
2023-04-01T00:12:22.730Z,98534.53
2023-04-01T00:13:23.545Z,98537.75
2023-04-01T00:14:23.452Z,98537.63
2023-04-01T00:15:23.785Z,98535.75
2023-04-01T00:16:24.181Z,98533.34
2023-04-01T00:17:24.661Z,98536.3
2023-04-01T00:18:25.236Z,98539.02
2023-04-01T00:19:25.139Z,98540.73
2023-04-01T00:20:25.869Z,98536.5
2023-04-01T00:21:25.802Z,98537.69
2023-04-01T00:22:27.462Z,98535.74
2023-04-01T00:23:26.907Z,98537.41
2023-04-01T00:24:26.916Z,98537.38
2023-04-01T00:25:27.308Z,98536.82
2023-04-01T00:26:27.867Z,98538.28
2023-04-01T00:27:27.959Z,98533.55
2023-04-01T00:28:28.676Z,98534.65
2023-04-01T00:29:31.577Z,98530.36
2023-04-01T00:30:29.206Z,98531.59
2023-04-01T00:31:29.441Z,98529.81
2023-04-01T00:32:30.638Z,98528.12
2023-04-01T00:33:30.349Z,98526.11
2023-04-01T00:34:30.572Z,98527.89
2023-04-01T00:35:30.953Z,98528.55
2023-04-01T00:36:31.158Z,98527.3
2023-04-01T00:37:31.622Z,98525.59
2023-04-01T00:38:31.926Z,98524.33
2023-04-01T00:39:33.269Z,98521.32
2023-04-01T00:40:39.015Z,98522.91
2023-04-01T00:41:36.153Z,98522.22
2023-04-01T00:42:36.770Z,98519.67
2023-04-01T00:43:37.085Z,98520.66
2023-04-01T00:44:38.623Z,98518.91
2023-04-01T00:45:40.389Z,98519.9
2023-04-01T00:46:38.078Z,98519.36
2023-04-01T00:47:38.474Z,98516.17
2023-04-01T00:48:44.376Z,98516.96
2023-04-01T00:49:45.224Z,98520.42
2023-04-01T00:50:50.561Z,98518.65
2023-04-01T00:51:51.382Z,98518.51
2023-04-01T00:52:48.719Z,98516.06
2023-04-01T00:53:52.228Z,98518.8
2023-04-01T00:54:54.573Z,98517.41
2023-04-01T00:55:58.571Z,98515.86
2023-04-01T00:57:59.201Z,98519.11
2023-04-01T00:59:01.698Z,98517.69
2023-04-01T00:59:59.412Z,98518.6
2023-04-01T01:01:01.580Z,98520.59
2023-04-01T01:02:01.627Z,98521.86
2023-04-01T01:03:00.204Z,98521.33
2023-04-01T01:04:00.399Z,98521.11
2023-04-01T01:05:01.389Z,98517.47
2023-04-01T01:16:33.448Z,98525.23
2023-04-01T01:36:16.988Z,98524.97
2023-04-01T01:37:20.143Z,98528.45
2023-04-01T01:38:26.521Z,98526.72
2023-04-01T01:39:21.498Z,98526.33
2023-04-01T01:40:21.492Z,98529.64
2023-04-01T01:41:21.916Z,98528.45
2023-04-01T01:42:21.814Z,98524.17
2023-04-01T01:43:24.763Z,98524.61
2023-04-01T01:44:24.064Z,98531.55
2023-04-01T01:45:26.968Z,98529.5
2023-04-01T01:46:27.173Z,98531.45
2023-04-01T01:47:25.549Z,98528.16
2023-04-01T01:48:27.803Z,98525.91
2023-04-01T01:49:29.741Z,98526.91
2023-04-01T01:50:28.024Z,98528.46
2023-04-01T01:51:29.254Z,98528.04
2023-04-01T01:52:28.945Z,98528.97
2023-04-01T01:53:28.255Z,98527.44
2023-04-01T01:54:28.676Z,98525.66
2023-04-01T01:55:35.017Z,98522.81
2023-04-01T01:56:35.377Z,98523.44
2023-04-01T01:57:37.454Z,98522.18
2023-04-01T01:58:38.709Z,98524.69
2023-04-01T01:59:40.656Z,98524.77
2023-04-01T02:00:39.144Z,98522.8
2023-04-01T02:01:42.880Z,98526.42
2023-04-01T02:02:48.640Z,98520.47
2023-04-01T02:03:43.466Z,98523.53
2023-04-01T02:04:44.637Z,98524.53
2023-04-01T02:05:42.248Z,98520.47
2023-04-01T02:06:49.419Z,98523.03
2023-04-01T02:07:53.319Z,98523.77
2023-04-01T02:09:52.683Z,98523.98
2023-04-01T02:12:00.503Z,98526.77
2023-04-01T02:13:02.772Z,98525.05
2023-04-01T02:14:07.496Z,98523.58
2023-04-01T02:15:11.486Z,98525.92
2023-04-01T02:18:14.365Z,98521.11
2023-04-01T02:19:14.374Z,98523.02
2023-04-01T02:20:18.592Z,98524.27
2023-04-01T02:21:17.984Z,98521.55
2023-04-01T02:22:23.300Z,98521.62
2023-04-01T02:23:21.463Z,98517.45
2023-04-01T02:24:23.131Z,98520.12
2023-04-01T02:25:28.652Z,98516.93
2023-04-01T02:26:27.207Z,98516.85
2023-04-01T02:27:29.770Z,98515.12
2023-04-01T02:28:31.438Z,98516.58
2023-04-01T02:29:29.101Z,98516.09
2023-04-01T02:30:32.172Z,98524.45
2023-04-01T02:31:30.092Z,98520.25
2023-04-01T02:32:32.715Z,98521.78
2023-04-01T02:33:31.772Z,98522.68
2023-04-01T02:34:30.757Z,98522.88
2023-04-01T02:35:31.478Z,98522.14
2023-04-01T02:36:32.323Z,98521.19
2023-04-01T02:37:33.313Z,98525.03
2023-04-01T02:38:32.165Z,98526.35
2023-04-01T02:39:32.246Z,98526.31
2023-04-01T02:41:43.607Z,98531.45
2023-04-01T02:42:41.449Z,98527.52
2023-04-01T02:43:41.569Z,98531.1
2023-04-01T02:44:41.834Z,98530.98
2023-04-01T02:45:42.002Z,98533.36
2023-04-01T02:46:42.726Z,98534.3
2023-04-01T02:47:42.757Z,98531.02
2023-04-01T02:48:43.140Z,98530.81
2023-04-01T02:49:45.218Z,98534.27
2023-04-01T02:50:43.769Z,98535.84
2023-04-01T02:51:44.239Z,98537.73
2023-04-01T02:52:44.400Z,98542.68
2023-04-01T02:53:44.924Z,98539.08
2023-04-01T02:54:45.233Z,98543.67
2023-04-01T02:55:45.863Z,98542.68
2023-04-01T02:56:45.875Z,98537.67
2023-04-01T02:57:46.185Z,98544.17
2023-04-01T02:58:47.103Z,98542.55
2023-04-01T02:59:46.903Z,98543.19
2023-04-01T03:00:47.367Z,98542.47
2023-04-01T03:01:47.554Z,98538.75
2023-04-01T03:02:48.141Z,98542.61
2023-04-01T03:03:48.365Z,98541.55
2023-04-01T03:04:49.641Z,98543.73
2023-04-01T03:05:49.007Z,98543.37
2023-04-01T03:06:49.519Z,98545.69
2023-04-01T03:07:49.630Z,98545.3
2023-04-01T03:08:50.242Z,98539.36
2023-04-01T03:09:50.364Z,98546.41
2023-04-01T03:10:51.202Z,98541.81
2023-04-01T03:11:51.194Z,98545.73
2023-04-01T03:12:52.739Z,98542.61
2023-04-01T03:13:51.939Z,98541.41
2023-04-01T03:14:52.143Z,98542.27
2023-04-01T03:15:52.771Z,98542.92
2023-04-01T03:16:52.841Z,98542.47
2023-04-01T03:17:53.130Z,98542.02
2023-04-01T03:18:53.700Z,98539.19
2023-04-01T03:19:53.767Z,98540.08
2023-04-01T03:20:54.214Z,98541.06
2023-04-01T03:21:54.449Z,98540.02
2023-04-01T03:22:54.838Z,98540.45
2023-04-01T03:23:55.264Z,98542.41
2023-04-01T03:24:55.691Z,98539.23
2023-04-01T03:25:55.962Z,98539.24
2023-04-01T03:26:59.072Z,98542.62
2023-04-01T03:27:56.521Z,98540.61
2023-04-01T03:28:57.141Z,98540.16
2023-04-01T03:29:57.285Z,98542.06
2023-04-01T03:30:57.894Z,98542.19
2023-04-01T03:31:57.987Z,98542.67
2023-04-01T03:32:59.363Z,98542.34
2023-04-01T03:33:59.035Z,98543.97
2023-04-01T03:34:59.014Z,98542.45
2023-04-01T03:35:59.696Z,98544.52
2023-04-01T03:37:00.056Z,98542.37
2023-04-01T03:38:00.113Z,98547.06
2023-04-01T03:39:00.578Z,98543.95
2023-04-01T03:40:00.704Z,98547.93
2023-04-01T03:41:00.996Z,98549.51
2023-04-01T03:42:01.326Z,98548.09
2023-04-01T03:43:01.890Z,98553.19
2023-04-01T03:44:02.165Z,98549.64
2023-04-01T03:45:03.688Z,98551.7
2023-04-01T03:46:02.915Z,98555.31
2023-04-01T03:47:03.186Z,98550.45
2023-04-01T03:48:03.718Z,98553.34
2023-04-01T03:49:04.045Z,98552.36
2023-04-01T03:50:05.181Z,98553.23
2023-04-01T03:51:08.841Z,98553.02
2023-04-01T03:52:10.607Z,98555.55
2023-04-01T03:53:08.616Z,98553.34
2023-04-01T03:54:08.665Z,98554.02
2023-04-01T03:55:09.174Z,98554.56
2023-04-01T03:56:09.900Z,98554.12
2023-04-01T03:57:09.521Z,98554.66
2023-04-01T03:58:10.232Z,98549.79
2023-04-01T03:59:10.657Z,98550.59
2023-04-01T04:00:13.827Z,98556.19
2023-04-01T04:01:19.169Z,98551.84
2023-04-01T04:02:13.041Z,98553.08
2023-04-01T04:03:14.587Z,98550.22
2023-04-01T04:04:13.784Z,98552.33
2023-04-01T04:05:12.752Z,98551.02
2023-04-01T04:06:14.810Z,98552.62
2023-04-01T04:07:13.469Z,98558.8
2023-04-01T04:08:13.686Z,98555.34
2023-04-01T04:09:14.212Z,98558.89
2023-04-01T04:10:14.416Z,98558.9
2023-04-01T04:11:14.935Z,98559.06
2023-04-01T04:12:15.136Z,98554.16
2023-04-01T04:13:15.545Z,98554.53
2023-04-01T04:14:15.869Z,98553.75
2023-04-01T04:15:16.492Z,98553.12
2023-04-01T04:16:17.959Z,98548.99
2023-04-01T04:17:16.834Z,98547.56
2023-04-01T04:18:17.252Z,98552.31
2023-04-01T04:19:20.622Z,98548.7
2023-04-01T04:20:18.075Z,98551.27
2023-04-01T04:21:18.380Z,98552.64
2023-04-01T04:22:18.695Z,98555.3
2023-04-01T04:23:19.414Z,98550.98
2023-04-01T04:24:19.531Z,98552.03
2023-04-01T04:25:19.739Z,98556.47
2023-04-01T04:26:20.159Z,98559.35
2023-04-01T04:27:22.129Z,98553.72
2023-04-01T04:28:20.784Z,98556.95
2023-04-01T04:29:21.308Z,98559.09
2023-04-01T04:30:22.559Z,98559.61
2023-04-01T04:31:24.200Z,98556.79
2023-04-01T04:32:22.251Z,98559.59
2023-04-01T04:33:23.677Z,98556.64
2023-04-01T04:34:23.488Z,98556.74
2023-04-01T04:35:23.286Z,98560.35
2023-04-01T04:36:23.499Z,98565.16
2023-04-01T04:37:24.014Z,98561.83
2023-04-01T04:38:24.836Z,98561.62
2023-04-01T04:39:24.750Z,98566.59
2023-04-01T04:40:25.069Z,98566.02
2023-04-01T04:41:25.467Z,98563.3
2023-04-01T04:42:26.943Z,98567.64
2023-04-01T04:43:26.010Z,98566.3
2023-04-01T04:44:26.618Z,98568.97
2023-04-01T04:45:26.624Z,98567.75
2023-04-01T04:46:27.172Z,98567.82
2023-04-01T04:47:27.580Z,98568.41
2023-04-01T04:48:27.785Z,98567.67
2023-04-01T04:49:28.158Z,98571.14
2023-04-01T04:50:28.399Z,98568.37
2023-04-01T04:51:28.713Z,98569.8
2023-04-01T04:52:29.001Z,98570.86
2023-04-01T04:53:29.865Z,98572.66
2023-04-01T04:54:30.592Z,98571.25
2023-04-01T04:55:30.104Z,98574.77
2023-04-01T04:56:30.606Z,98569.57
2023-04-01T04:57:31.594Z,98569.54
2023-04-01T04:58:31.222Z,98570.67
2023-04-01T04:59:32.241Z,98571.59
2023-04-01T05:00:31.875Z,98570.58
2023-04-01T05:01:32.510Z,98572.18
2023-04-01T05:02:32.765Z,98571.92
2023-04-01T05:03:33.030Z,98572.8
2023-04-01T05:05:35.372Z,98571.02
2023-04-01T05:06:35.443Z,98573.44
2023-04-01T05:07:36.083Z,98572.05
2023-04-01T05:08:37.328Z,98573.29
2023-04-01T05:09:36.719Z,98574.86
2023-04-01T05:10:37.145Z,98571.97
2023-04-01T05:11:37.340Z,98576.34
2023-04-01T05:12:40.192Z,98575.02
2023-04-01T05:13:37.972Z,98574.56
2023-04-01T05:14:38.351Z,98578.08
2023-04-01T05:15:38.797Z,98577.3
2023-04-01T05:16:39.069Z,98580.76
2023-04-01T05:17:42.262Z,98576.58
2023-04-01T05:18:39.919Z,98576.73
2023-04-01T05:19:40.574Z,98577.48
2023-04-01T05:20:40.489Z,98576.03
2023-04-01T05:21:40.685Z,98580.59
2023-04-01T05:22:41.443Z,98585.36
2023-04-01T05:23:41.638Z,98581.49
2023-04-01T05:24:41.746Z,98578.44
2023-04-01T05:25:42.357Z,98580.27
2023-04-01T05:26:42.458Z,98577.02
2023-04-01T05:27:42.816Z,98581.05
2023-04-01T05:28:43.503Z,98582.23
2023-04-01T05:29:43.505Z,98577.61
2023-04-01T05:30:45.126Z,98581.76
2023-04-01T05:31:44.236Z,98578.47
2023-04-01T05:32:44.892Z,98584.22
2023-04-01T05:33:44.823Z,98579.7
2023-04-01T05:34:45.926Z,98581.41
2023-04-01T05:35:45.867Z,98579.36
2023-04-01T05:36:46.028Z,98578.31
2023-04-01T05:37:49.083Z,98579.95
2023-04-01T05:38:47.050Z,98582.14
2023-04-01T05:39:47.274Z,98581.39
2023-04-01T05:40:47.474Z,98580.11
2023-04-01T05:41:47.900Z,98583.06
2023-04-01T05:42:48.002Z,98582.69
2023-04-01T05:43:48.418Z,98585.81
2023-04-01T05:44:48.732Z,98583.05
2023-04-01T05:45:50.104Z,98589.05
2023-04-01T05:46:49.504Z,98592.75
2023-04-01T05:47:50.094Z,98587.66
2023-04-01T05:48:50.316Z,98587.04
2023-04-01T05:49:50.491Z,98586.44
2023-04-01T05:50:50.919Z,98586.77
2023-04-01T05:51:51.653Z,98585.48
2023-04-01T05:52:53.973Z,98587.96
2023-04-01T05:53:51.870Z,98589.14
2023-04-01T05:54:52.406Z,98588.09
2023-04-01T05:55:52.747Z,98589.88
2023-04-01T05:56:53.137Z,98591.92
2023-04-01T05:57:53.539Z,98592.67
2023-04-01T05:58:54.993Z,98592.73
2023-04-01T05:59:54.153Z,98592.27
2023-04-01T06:01:59.867Z,98597.3
2023-04-01T06:03:02.207Z,98596.08
2023-04-01T06:03:59.849Z,98596.64
2023-04-01T06:06:03.778Z,98598.59
2023-04-01T06:56:15.443Z,98632.05
2023-04-01T07:02:36.378Z,98633.81
2023-04-01T07:08:40.973Z,98636.73
2023-04-01T07:09:42.885Z,98635.21
2023-04-01T07:11:46.148Z,98635.45
2023-04-01T07:12:52.799Z,98638
2023-04-01T07:13:56.813Z,98637.42
2023-04-01T07:14:57.315Z,98633.92
2023-04-01T07:18:07.109Z,98639.19
2023-04-01T07:26:25.251Z,98644.55
2023-04-01T07:27:24.758Z,98642.65
2023-04-01T07:28:24.346Z,98644.07
2023-04-01T07:29:27.214Z,98645.33
2023-04-01T07:36:55.028Z,98640.41
2023-04-01T08:06:21.114Z,98657.55
2023-04-01T08:07:18.970Z,98659.39
2023-04-01T08:20:54.668Z,98666.95
2023-04-01T08:21:53.679Z,98669.35
2023-04-01T08:22:59.746Z,98673.73
2023-04-01T08:24:03.757Z,98673.48
2023-04-01T08:25:05.582Z,98677.98
2023-04-01T08:52:25.206Z,98693
2023-04-01T11:44:34.904Z,98833.48
2023-04-01T12:55:47.186Z,98896.66
2023-04-01T13:42:31.066Z,98954.16
2023-04-01T14:50:22.628Z,99029.67
2023-04-01T14:52:31.641Z,99039.61
2023-04-01T14:57:34.569Z,99045.17
2023-04-01T14:59:42.632Z,99051.62
2023-04-01T15:47:46.869Z,99092.33
2023-04-01T16:36:56.987Z,99177.27
2023-04-01T16:47:31.066Z,99188.55
2023-04-01T16:49:41.714Z,99188.47
2023-04-01T16:55:53.115Z,99206.55
2023-04-01T16:56:55.614Z,99207.39
2023-04-01T16:57:58.156Z,99209.03
2023-04-01T17:05:13.365Z,99218.85
2023-04-01T17:41:08.166Z,99255.09
2023-04-01T17:52:38.959Z,99269.66
2023-04-01T18:24:02.433Z,99309.94
2023-04-01T18:40:35.216Z,99331.19
2023-04-01T18:41:37.044Z,99336.27
2023-04-01T18:42:42.455Z,99333.55
2023-04-01T18:51:04.126Z,99341.67
2023-04-01T18:52:09.357Z,99344.14
2023-04-01T18:53:15.811Z,99342.35
2023-04-01T18:57:15.259Z,99347.33
2023-04-01T18:59:26.192Z,99353.34
2023-04-01T19:08:41.255Z,99358.76
2023-04-01T19:09:46.946Z,99363.84
2023-04-01T19:36:57.775Z,99395.64
2023-04-01T19:37:59.213Z,99397.02
2023-04-01T20:04:56.424Z,99417.97
2023-04-01T20:20:35.815Z,99443.91
2023-04-01T20:24:46.686Z,99452.78
2023-04-01T20:26:55.699Z,99450.31
2023-04-01T20:50:53.143Z,99475.77
2023-04-01T22:07:12.892Z,99520.12
2023-04-01T22:27:11.188Z,99530.5
2023-04-01T22:28:06.083Z,99526.91
2023-04-01T22:31:15.517Z,99537.62
2023-04-01T22:32:21.993Z,99536.64
2023-04-01T22:43:42.420Z,99538.7
2023-04-01T22:56:21.419Z,99558.86
2023-04-01T22:58:33.910Z,99557.3
2023-04-01T23:01:38.017Z,99556.41
2023-04-01T23:02:43.495Z,99567.23
2023-04-01T23:04:43.222Z,99562.72
2023-04-01T23:06:47.592Z,99558.95
2023-04-01T23:09:53.604Z,99565.83
2023-04-01T23:13:02.576Z,99566.23
2023-04-01T23:15:04.876Z,99569.91
2023-04-01T23:16:06.754Z,99564.12
2023-04-01T23:27:34.833Z,99584.09
2023-04-01T23:29:28.812Z,99589.28
2023-04-01T23:32:34.476Z,99586.53
2023-04-01T23:33:34.777Z,99589.73
2023-04-01T23:34:36.714Z,99588.42
2023-04-01T23:35:47.181Z,99587.7
2023-04-01T23:36:48.597Z,99591.2
2023-04-01T23:37:41.542Z,99588.28
2023-04-01T23:38:44.114Z,99585.22
2023-04-01T23:39:44.629Z,99589.98
2023-04-01T23:40:43.094Z,99593
2023-04-01T23:41:42.596Z,99588.05
2023-04-01T23:42:43.117Z,99589.52
2023-04-01T23:43:45.281Z,99590.59
2023-04-01T23:44:44.567Z,99595.52
2023-04-01T23:45:44.072Z,99594.45
2023-04-01T23:46:47.442Z,99593.04
2023-04-01T23:47:48.416Z,99594.58
2023-04-01T23:48:47.827Z,99598.05
2023-04-01T23:50:51.615Z,99598.03
2023-04-01T23:51:59.163Z,99598.2
2023-04-01T23:56:04.422Z,99605.66
